createdAt,value
2018-01-28T00:01:21.428Z,99.90
2018-01-28T00:03:49.793Z,99.90
2018-01-28T00:06:18.199Z,99.90
2018-01-28T00:08:45.805Z,99.90
2018-01-28T00:11:13.408Z,99.90
2018-01-28T00:13:41.765Z,99.90
2018-01-28T00:16:09.397Z,99.90
2018-01-28T00:18:37.000Z,99.90
2018-01-28T00:21:04.635Z,99.90
2018-01-28T00:23:32.273Z,99.90
2018-01-28T00:25:59.868Z,99.90
2018-01-28T00:28:27.475Z,99.90
2018-01-28T00:30:55.090Z,99.90
2018-01-28T00:33:22.681Z,99.90
2018-01-28T00:35:51.060Z,99.90
2018-01-28T00:38:19.416Z,99.90
2018-01-28T00:40:47.067Z,99.90
2018-01-28T00:43:14.690Z,99.90
2018-01-28T00:45:42.308Z,99.90
2018-01-28T00:48:10.669Z,99.90
2018-01-28T00:50:38.260Z,99.90
2018-01-28T00:53:06.646Z,99.90
2018-01-28T00:55:35.020Z,99.90
2018-01-28T00:58:03.413Z,99.90
2018-01-28T01:00:31.020Z,99.90
2018-01-28T01:02:58.624Z,99.90
2018-01-28T01:05:26.999Z,99.90
2018-01-28T01:07:55.349Z,99.90
2018-01-28T01:10:22.957Z,99.90
2018-01-28T01:12:50.551Z,99.90
2018-01-28T01:15:18.200Z,99.90
2018-01-28T01:17:45.789Z,99.90
2018-01-28T01:20:13.386Z,99.90
2018-01-28T01:22:41.745Z,99.90
2018-01-28T01:25:09.347Z,99.90
2018-01-28T01:27:36.980Z,99.90
2018-01-28T01:30:05.354Z,99.90
2018-01-28T01:32:33.760Z,99.90
2018-01-28T01:35:01.349Z,99.90
2018-01-28T01:37:28.946Z,99.90
2018-01-28T01:39:56.550Z,99.90
2018-01-28T01:42:24.133Z,99.90
2018-01-28T01:44:51.741Z,99.90
2018-01-28T01:47:20.118Z,99.90
2018-01-28T01:49:48.515Z,99.90
2018-01-28T01:52:16.872Z,99.90
2018-01-28T01:54:44.487Z,99.90
2018-01-28T01:57:12.101Z,99.90
2018-01-28T01:59:39.698Z,99.90
2018-01-28T02:02:07.341Z,99.90
2018-01-28T02:04:35.693Z,99.90
2018-01-28T02:07:03.329Z,99.90
2018-01-28T02:09:30.946Z,99.90
2018-01-28T02:11:58.530Z,99.90
2018-01-28T02:14:26.120Z,99.90
2018-01-28T02:22:43.493Z,99.90
2018-01-28T02:25:11.119Z,99.90
2018-01-28T02:27:38.719Z,99.90
2018-01-28T02:30:06.324Z,99.90
2018-01-28T02:32:33.923Z,99.90
2018-01-28T02:35:01.530Z,99.90
2018-01-28T02:37:29.929Z,99.90
2018-01-28T02:39:57.540Z,99.90
2018-01-28T02:42:25.150Z,99.90
2018-01-28T02:44:52.762Z,99.90
2018-01-28T02:47:20.374Z,99.90
2018-01-28T02:49:47.988Z,99.90
2018-01-28T02:52:15.596Z,99.90
2018-01-28T02:54:43.191Z,99.90
2018-01-28T02:57:10.803Z,99.90
2018-01-28T02:59:39.163Z,99.90
2018-01-28T03:02:06.812Z,99.90
2018-01-28T03:04:34.439Z,99.90
2018-01-28T03:07:02.050Z,99.90
2018-01-28T03:09:29.640Z,99.90
2018-01-28T03:11:57.259Z,99.90
2018-01-28T03:14:24.876Z,99.90
2018-01-28T03:16:52.485Z,99.90
2018-01-28T03:19:20.871Z,99.90
2018-01-28T03:21:48.482Z,99.90
2018-01-28T03:24:16.087Z,99.90
2018-01-28T03:26:43.715Z,99.90
2018-01-28T03:29:11.312Z,99.90
2018-01-28T03:31:38.937Z,99.90
2018-01-28T03:34:06.536Z,99.90
2018-01-28T03:36:34.163Z,99.90
2018-01-28T03:39:01.804Z,99.90
2018-01-28T03:41:29.412Z,99.90
2018-01-28T03:43:58.011Z,99.90
2018-01-28T03:46:25.605Z,99.90
2018-01-28T03:48:53.210Z,99.90
2018-01-28T03:51:20.822Z,99.90
2018-01-28T03:53:48.437Z,99.90
2018-01-28T03:56:16.040Z,99.90
2018-01-28T03:58:43.634Z,99.90
2018-01-28T04:01:11.236Z,99.90
2018-01-28T04:03:38.856Z,99.90
2018-01-28T04:06:06.459Z,99.30
2018-01-28T04:08:34.072Z,99.40
2018-01-28T04:11:01.684Z,99.30
2018-01-28T04:13:29.288Z,99.00
2018-01-28T04:15:56.902Z,98.70
2018-01-28T04:18:24.498Z,98.40
2018-01-28T04:20:52.102Z,98.40
2018-01-28T04:23:19.690Z,98.40
2018-01-28T04:25:47.293Z,98.00
2018-01-28T04:28:14.932Z,97.60
2018-01-28T04:30:43.285Z,97.30
2018-01-28T04:33:10.874Z,97.50
2018-01-28T04:35:39.225Z,97.30
2018-01-28T04:38:06.828Z,97.30
2018-01-28T04:40:34.474Z,97.40
2018-01-28T04:43:02.834Z,96.80
2018-01-28T04:45:30.439Z,96.70
2018-01-28T04:47:58.040Z,96.80
2018-01-28T04:50:25.648Z,96.30
2018-01-28T04:52:53.262Z,96.40
2018-01-28T04:55:20.875Z,96.40
2018-01-28T04:57:48.496Z,95.90
2018-01-28T05:00:16.112Z,95.90
2018-01-28T05:02:43.699Z,96.20
2018-01-28T05:05:11.340Z,95.70
2018-01-28T05:07:38.929Z,95.50
2018-01-28T05:10:06.553Z,95.20
2018-01-28T05:12:34.159Z,95.40
2018-01-28T05:20:51.646Z,95.10
2018-01-28T05:23:20.042Z,95.00
2018-01-28T05:25:47.642Z,95.00
2018-01-28T05:28:15.233Z,95.30
2018-01-28T05:30:42.831Z,95.10
2018-01-28T05:33:10.417Z,94.50
2018-01-28T05:35:38.020Z,94.30
2018-01-28T05:38:05.614Z,94.00
2018-01-28T05:40:33.210Z,93.60
2018-01-28T05:43:00.814Z,94.20
2018-01-28T05:45:29.177Z,93.60
2018-01-28T05:47:56.801Z,93.50
2018-01-28T05:50:24.387Z,93.30
2018-01-28T05:52:51.994Z,93.90
2018-01-28T05:55:20.352Z,93.60
2018-01-28T05:57:48.726Z,93.20
2018-01-28T06:00:16.344Z,93.20
2018-01-28T06:02:43.937Z,93.30
2018-01-28T06:05:11.543Z,93.70
2018-01-28T06:07:39.138Z,93.60
2018-01-28T06:10:06.737Z,92.90
2018-01-28T06:12:35.134Z,93.10
2018-01-28T06:15:03.504Z,93.00
2018-01-28T06:17:31.862Z,93.40
2018-01-28T06:19:59.458Z,93.30
2018-01-28T06:22:27.050Z,92.80
2018-01-28T06:24:54.665Z,93.00
2018-01-28T06:27:23.025Z,93.00
2018-01-28T06:29:50.610Z,93.00
2018-01-28T06:32:18.978Z,93.10
2018-01-28T06:34:47.328Z,93.20
2018-01-28T06:37:15.747Z,93.40
2018-01-28T06:39:43.379Z,93.70
2018-01-28T06:42:10.962Z,93.40
2018-01-28T06:44:39.321Z,93.60
2018-01-28T06:47:06.906Z,93.60
2018-01-28T06:49:35.291Z,93.40
2018-01-28T06:52:02.891Z,93.40
2018-01-28T06:54:30.511Z,93.20
2018-01-28T06:57:03.087Z,92.40
2018-01-28T06:59:31.446Z,92.70
2018-01-28T07:01:59.046Z,92.60
2018-01-28T07:04:26.626Z,92.70
2018-01-28T07:06:54.229Z,92.50
2018-01-28T07:09:21.814Z,92.20
2018-01-28T07:11:49.408Z,92.40
2018-01-28T07:14:17.005Z,92.20
2018-01-28T07:16:44.608Z,92.10
2018-01-28T07:19:12.216Z,92.20
2018-01-28T07:21:40.013Z,92.40
2018-01-28T07:24:16.055Z,92.20
2018-01-28T07:26:43.634Z,92.10
2018-01-28T07:29:11.991Z,91.70
2018-01-28T07:31:48.208Z,91.70
2018-01-28T07:34:17.794Z,91.30
2018-01-28T07:36:46.140Z,91.70
2018-01-28T07:39:37.086Z,91.70
2018-01-28T07:42:05.456Z,90.90
2018-01-28T07:44:33.807Z,91.30
2018-01-28T07:47:01.422Z,91.30
2018-01-28T07:49:35.029Z,90.90
2018-01-28T07:52:04.587Z,89.40
2018-01-28T07:54:42.588Z,90.70
2018-01-28T07:57:12.512Z,90.40
2018-01-28T07:59:40.086Z,89.20
2018-01-28T08:02:08.443Z,89.50
2018-01-28T08:04:36.035Z,89.40
2018-01-28T08:07:03.669Z,89.70
2018-01-28T08:09:32.283Z,89.70
2018-01-28T08:12:05.447Z,89.40
2018-01-28T08:14:34.943Z,89.90
2018-01-28T08:17:22.505Z,90.10
2018-01-28T08:19:50.860Z,88.80
2018-01-28T08:22:18.448Z,88.80
2018-01-28T08:24:56.703Z,88.70
2018-01-28T08:30:37.099Z,88.30
2018-01-28T08:33:04.700Z,88.40
2018-01-28T08:35:33.084Z,88.30
2018-01-28T08:38:00.688Z,88.30
2018-01-28T08:40:33.801Z,87.60
2018-01-28T08:43:01.385Z,86.80
2018-01-28T08:45:29.738Z,88.50
2018-01-28T08:47:57.347Z,88.40
2018-01-28T08:50:24.930Z,87.80
2018-01-28T08:52:52.569Z,87.30
2018-01-28T08:55:20.180Z,87.20
2018-01-28T08:57:47.803Z,88.30
2018-01-28T09:00:15.406Z,88.00
2018-01-28T09:02:43.007Z,87.00
2018-01-28T09:05:10.633Z,87.50
2018-01-28T09:07:38.239Z,88.10
2018-01-28T09:10:05.832Z,87.00
2018-01-28T09:12:34.199Z,85.90
2018-01-28T09:15:01.796Z,85.80
2018-01-28T09:17:29.417Z,86.20
2018-01-28T09:19:57.020Z,85.60
2018-01-28T09:22:24.614Z,86.70
2018-01-28T09:24:52.983Z,85.60
2018-01-28T09:27:21.366Z,84.20
2018-01-28T09:29:55.550Z,82.50
2018-01-28T09:32:23.128Z,82.50
2018-01-28T09:34:51.505Z,83.70
2018-01-28T09:37:19.089Z,83.70
2018-01-28T09:39:47.451Z,83.20
2018-01-28T09:42:15.834Z,82.20
2018-01-28T09:44:44.180Z,82.90
2018-01-28T09:47:11.791Z,82.90
2018-01-28T09:49:39.374Z,82.70
2018-01-28T09:52:06.979Z,84.00
2018-01-28T09:54:34.607Z,82.50
2018-01-28T09:57:02.187Z,82.30
2018-01-28T09:59:46.387Z,83.20
2018-01-28T10:02:13.999Z,81.40
2018-01-28T10:04:41.636Z,83.30
2018-01-28T10:07:09.251Z,82.60
2018-01-28T10:09:37.596Z,83.50
2018-01-28T10:12:05.174Z,83.30
2018-01-28T10:14:32.766Z,82.70
2018-01-28T10:17:00.419Z,83.40
2018-01-28T10:19:30.705Z,83.90
2018-01-28T10:21:58.314Z,83.80
2018-01-28T10:24:26.690Z,81.90
2018-01-28T10:26:55.031Z,81.70
2018-01-28T10:29:23.443Z,82.10
2018-01-28T10:31:51.791Z,80.60
2018-01-28T10:34:19.407Z,80.60
2018-01-28T10:36:47.012Z,81.20
2018-01-28T10:39:15.578Z,83.20
2018-01-28T10:41:43.190Z,83.20
2018-01-28T10:44:11.547Z,82.20
2018-01-28T10:46:39.137Z,82.20
2018-01-28T10:49:08.705Z,84.10
2018-01-28T10:51:36.306Z,83.80
2018-01-28T10:54:03.962Z,82.70
2018-01-28T10:56:32.323Z,83.10
2018-01-28T10:58:59.918Z,83.10
2018-01-28T11:01:29.472Z,82.50
2018-01-28T11:03:57.058Z,84.40
2018-01-28T11:06:25.467Z,85.00
2018-01-28T11:08:53.062Z,85.00
2018-01-28T11:11:25.103Z,84.40
2018-01-28T11:13:52.681Z,84.20
2018-01-28T11:16:20.264Z,85.00
2018-01-28T11:18:54.143Z,86.70
2018-01-28T11:21:21.724Z,87.00
2018-01-28T11:23:52.813Z,88.00
2018-01-28T11:26:21.161Z,88.30
2018-01-28T11:28:48.757Z,88.30
2018-01-28T11:31:17.112Z,88.30
2018-01-28T11:33:49.887Z,88.30
2018-01-28T11:36:17.511Z,88.70
2018-01-28T11:38:45.084Z,88.10
2018-01-28T11:41:29.925Z,88.60
2018-01-28T11:44:03.954Z,88.40
2018-01-28T11:46:31.570Z,86.80
2018-01-28T11:48:59.920Z,88.40
2018-01-28T11:51:27.519Z,88.30
2018-01-28T11:53:56.864Z,86.00
2018-01-28T11:56:24.441Z,86.00
2018-01-28T11:58:52.053Z,86.00
2018-01-28T12:01:19.653Z,85.90
2018-01-28T12:03:47.248Z,83.00
2018-01-28T12:06:15.598Z,85.50
2018-01-28T12:08:43.209Z,85.50
2018-01-28T12:14:24.097Z,85.50
2018-01-28T12:16:52.492Z,86.90
2018-01-28T12:19:20.069Z,86.80
2018-01-28T12:21:47.667Z,87.90
2018-01-28T12:24:15.245Z,89.00
2018-01-28T12:26:43.586Z,90.10
2018-01-28T12:29:17.285Z,90.00
2018-01-28T12:31:45.655Z,90.30
2018-01-28T12:34:13.250Z,90.30
2018-01-28T12:36:40.854Z,90.50
2018-01-28T12:39:08.439Z,90.30
2018-01-28T12:41:36.053Z,90.00
2018-01-28T12:44:04.416Z,90.30
2018-01-28T12:46:32.023Z,90.30
2018-01-28T12:48:59.649Z,90.10
2018-01-28T12:51:28.021Z,90.00
2018-01-28T12:53:55.646Z,90.00
2018-01-28T12:56:23.224Z,89.90
2018-01-28T12:58:50.816Z,90.00
2018-01-28T13:01:19.188Z,90.00
2018-01-28T13:03:46.769Z,90.00
2018-01-28T13:06:16.158Z,90.50
2018-01-28T13:08:44.510Z,90.40
2018-01-28T13:11:12.105Z,90.60
2018-01-28T13:13:40.448Z,89.60
2018-01-28T13:16:08.024Z,89.50
2018-01-28T13:18:35.638Z,90.00
2018-01-28T13:21:03.218Z,90.00
2018-01-28T13:23:30.810Z,89.70
2018-01-28T13:25:58.396Z,90.00
2018-01-28T13:28:25.978Z,90.20
2018-01-28T13:30:53.594Z,89.60
2018-01-28T13:33:21.177Z,89.30
2018-01-28T13:35:49.532Z,90.40
2018-01-28T13:38:17.126Z,90.10
2018-01-28T13:40:44.770Z,90.70
2018-01-28T13:43:13.231Z,90.40
2018-01-28T13:45:44.060Z,90.40
2018-01-28T13:48:11.658Z,90.30
2018-01-28T13:50:39.258Z,90.20
2018-01-28T13:53:06.848Z,90.60
2018-01-28T13:55:34.469Z,90.70
2018-01-28T13:58:02.064Z,90.80
2018-01-28T14:00:29.666Z,90.50
2018-01-28T14:02:57.267Z,90.00
2018-01-28T14:05:24.861Z,89.60
2018-01-28T14:07:52.479Z,89.50
2018-01-28T14:10:22.255Z,90.10
2018-01-28T14:12:50.625Z,90.30
2018-01-28T14:15:21.941Z,91.50
2018-01-28T14:17:49.524Z,91.50
2018-01-28T14:20:19.126Z,92.00
2018-01-28T14:22:46.704Z,92.20
2018-01-28T14:25:15.062Z,92.60
2018-01-28T14:27:42.672Z,92.60
2018-01-28T14:30:10.274Z,92.50
2018-01-28T14:32:37.898Z,92.10
2018-01-28T14:35:05.512Z,92.10
2018-01-28T14:37:33.102Z,92.40
2018-01-28T14:40:00.698Z,92.20
2018-01-28T14:42:28.288Z,91.80
2018-01-28T14:44:55.916Z,91.90
2018-01-28T14:47:23.503Z,91.90
2018-01-28T14:49:51.084Z,91.90
2018-01-28T14:52:19.452Z,92.00
2018-01-28T14:54:47.033Z,91.80
2018-01-28T14:57:17.345Z,92.10
2018-01-28T14:59:44.944Z,92.10
2018-01-28T15:02:12.530Z,91.90
2018-01-28T15:04:40.113Z,92.20
2018-01-28T15:07:07.700Z,92.10
2018-01-28T15:09:36.092Z,91.90
2018-01-28T15:12:04.430Z,92.00
2018-01-28T15:14:32.054Z,92.00
2018-01-28T15:16:59.636Z,91.80
2018-01-28T15:19:39.958Z,92.10
2018-01-28T15:22:27.299Z,92.30
2018-01-28T15:25:00.916Z,92.40
2018-01-28T15:27:28.547Z,92.30
2018-01-28T15:29:56.129Z,92.60
2018-01-28T15:32:27.309Z,92.70
2018-01-28T15:34:54.891Z,92.80
2018-01-28T15:37:23.258Z,93.00
2018-01-28T15:39:51.861Z,92.80
2018-01-28T15:42:20.243Z,92.80
2018-01-28T15:44:48.589Z,93.20
2018-01-28T15:47:18.197Z,93.20
2018-01-28T15:49:50.995Z,93.90
2018-01-28T15:52:22.962Z,93.60
2018-01-28T15:54:50.577Z,93.60
2018-01-28T15:57:18.191Z,93.50
2018-01-28T15:59:45.768Z,93.70
2018-01-28T16:02:14.142Z,93.80
2018-01-28T16:04:42.529Z,93.50
2018-01-28T16:07:10.876Z,93.80
2018-01-28T16:09:38.456Z,93.80
2018-01-28T16:12:13.573Z,94.00
2018-01-28T16:14:41.155Z,94.00
2018-01-28T16:20:08.977Z,94.20
2018-01-28T16:22:36.598Z,94.10
2018-01-28T16:25:04.221Z,94.30
2018-01-28T16:27:31.820Z,94.40
2018-01-28T16:29:59.425Z,94.50
2018-01-28T16:32:27.020Z,94.60
2018-01-28T16:34:54.651Z,94.40
2018-01-28T16:37:22.224Z,94.60
2018-01-28T16:39:49.810Z,94.60
2018-01-28T16:42:17.405Z,94.50
2018-01-28T16:44:45.770Z,94.70
2018-01-28T16:47:14.213Z,94.70
2018-01-28T16:49:41.886Z,94.70
2018-01-28T16:52:09.683Z,94.80
2018-01-28T16:54:38.067Z,94.90
2018-01-28T16:57:06.448Z,95.10
2018-01-28T16:59:34.838Z,95.30
2018-01-28T17:02:03.190Z,95.40
2018-01-28T17:04:30.799Z,95.30
2018-01-28T17:06:58.377Z,95.70
2018-01-28T17:09:25.988Z,95.50
2018-01-28T17:12:10.989Z,95.70
2018-01-28T17:14:38.586Z,95.70
2018-01-28T17:17:06.173Z,95.80
2018-01-28T17:19:33.780Z,96.10
2018-01-28T17:22:01.395Z,95.90
2018-01-28T17:24:29.028Z,96.00
2018-01-28T17:26:57.413Z,96.10
2018-01-28T17:29:25.005Z,96.10
2018-01-28T17:31:53.373Z,96.30
2018-01-28T17:34:21.328Z,96.30
2018-01-28T17:36:48.944Z,96.40
2018-01-28T17:39:16.539Z,96.50
2018-01-28T17:41:44.131Z,96.70
2018-01-28T17:44:12.530Z,96.90
2018-01-28T17:46:40.139Z,96.90
2018-01-28T17:49:07.781Z,97.00
2018-01-28T17:51:35.375Z,96.90
2018-01-28T17:54:02.989Z,97.00
2018-01-28T17:56:30.597Z,97.20
2018-01-28T17:59:02.782Z,96.80
2018-01-28T18:01:30.397Z,96.80
2018-01-28T18:04:02.389Z,97.00
2018-01-28T18:06:34.996Z,97.00
2018-01-28T18:09:03.506Z,97.10
2018-01-28T18:11:49.533Z,97.00
2018-01-28T18:14:17.121Z,97.20
2018-01-28T18:19:38.153Z,97.90
2018-01-28T18:22:06.542Z,98.00
2018-01-28T18:24:35.963Z,98.30
2018-01-28T18:27:08.679Z,98.30
2018-01-28T18:29:44.023Z,98.60
2018-01-28T18:32:12.675Z,98.80
2018-01-28T18:34:40.291Z,99.00
2018-01-28T18:37:07.909Z,99.40
2018-01-28T18:39:46.184Z,99.40
2018-01-28T18:42:26.989Z,99.90
2018-01-28T18:44:54.645Z,99.90
2018-01-28T18:47:22.241Z,99.90
2018-01-28T18:50:09.072Z,99.90
2018-01-28T18:52:36.655Z,99.90
2018-01-28T18:55:05.062Z,99.90
2018-01-28T18:57:34.220Z,99.90
2018-01-28T19:00:19.349Z,99.90
2018-01-28T19:02:46.983Z,99.90
2018-01-28T19:05:14.585Z,99.90
2018-01-28T19:07:42.268Z,99.90
2018-01-28T19:10:09.880Z,99.90
2018-01-28T19:12:37.498Z,99.90
2018-01-28T19:15:05.819Z,99.90
2018-01-28T19:17:33.433Z,99.90
2018-01-28T19:20:01.098Z,99.90
2018-01-28T19:22:29.232Z,99.90
2018-01-28T19:24:56.832Z,99.90
2018-01-28T19:27:32.274Z,99.90
2018-01-28T19:29:59.880Z,99.90
2018-01-28T19:32:27.523Z,99.90
2018-01-28T19:34:55.899Z,99.90
2018-01-28T19:37:24.301Z,99.90
2018-01-28T19:39:51.893Z,99.90
2018-01-28T19:42:19.502Z,99.90
2018-01-28T19:44:47.902Z,99.90
2018-01-28T19:47:15.798Z,99.90
2018-01-28T19:49:43.473Z,99.90
2018-01-28T19:52:11.074Z,99.90
2018-01-28T19:54:39.441Z,99.90
2018-01-28T19:57:07.057Z,99.90
2018-01-28T19:59:34.653Z,99.90
2018-01-28T20:02:02.262Z,99.90
2018-01-28T20:04:35.429Z,99.90
2018-01-28T20:07:03.802Z,99.70
2018-01-28T20:09:32.199Z,99.70
2018-01-28T20:12:02.500Z,99.60
2018-01-28T20:14:30.164Z,99.70
2018-01-28T20:16:57.763Z,99.80
2018-01-28T20:19:31.019Z,99.70
2018-01-28T20:22:12.194Z,99.80
2018-01-28T20:24:39.789Z,99.70
2018-01-28T20:27:08.172Z,99.40
2018-01-28T20:29:35.812Z,99.40
2018-01-28T20:32:04.211Z,99.40
2018-01-28T20:34:37.915Z,99.30
2018-01-28T20:37:06.261Z,99.30
2018-01-28T20:39:33.849Z,99.30
2018-01-28T20:42:02.227Z,99.10
2018-01-28T20:44:30.615Z,99.10
2018-01-28T20:46:58.206Z,99.10
2018-01-28T20:49:25.806Z,99.20
2018-01-28T20:51:53.423Z,99.50
2018-01-28T20:54:22.036Z,99.20
2018-01-28T20:56:49.667Z,99.00
2018-01-28T20:59:17.267Z,98.90
2018-01-28T21:01:44.848Z,98.80
2018-01-28T21:04:13.200Z,98.50
2018-01-28T21:06:40.795Z,98.50
2018-01-28T21:09:09.164Z,98.20
2018-01-28T21:11:37.564Z,98.00
2018-01-28T21:14:05.177Z,98.00
2018-01-28T21:16:32.775Z,97.90
2018-01-28T21:19:01.132Z,97.80
2018-01-28T21:21:28.749Z,97.80
2018-01-28T21:23:56.335Z,97.70
2018-01-28T21:26:24.784Z,97.70
2018-01-28T21:28:54.339Z,97.60
2018-01-28T21:31:21.951Z,97.70
2018-01-28T21:33:49.562Z,97.80
2018-01-28T21:36:17.136Z,98.20
2018-01-28T21:38:44.716Z,98.10
2018-01-28T21:41:13.077Z,98.10
2018-01-28T21:43:40.672Z,98.10
2018-01-28T21:46:08.298Z,98.00
2018-01-28T21:48:36.654Z,98.00
2018-01-28T21:51:04.236Z,98.00
2018-01-28T21:53:31.815Z,98.10
2018-01-28T21:56:00.174Z,98.30
2018-01-28T22:01:27.506Z,98.80
2018-01-28T22:03:55.127Z,98.80
2018-01-28T22:06:22.721Z,98.90
2018-01-28T22:08:50.313Z,99.10
2018-01-28T22:11:17.911Z,99.00
2018-01-28T22:13:46.272Z,98.90
2018-01-28T22:16:13.916Z,98.90
2018-01-28T22:18:41.501Z,98.90
2018-01-28T22:21:09.861Z,99.10
2018-01-28T22:23:38.252Z,99.00
2018-01-28T22:26:05.832Z,99.00
2018-01-28T22:28:34.286Z,99.30
2018-01-28T22:31:01.873Z,99.30
2018-01-28T22:33:30.237Z,99.60
2018-01-28T22:35:57.820Z,99.60
2018-01-28T22:38:26.179Z,99.60
2018-01-28T22:40:53.813Z,99.60
2018-01-28T22:43:21.409Z,99.50
2018-01-28T22:45:49.774Z,99.50
2018-01-28T22:48:17.361Z,99.50
2018-01-28T22:50:45.710Z,99.60
2018-01-28T22:53:13.341Z,99.60
2018-01-28T22:55:40.927Z,99.60
2018-01-28T22:58:08.512Z,99.50
2018-01-28T23:00:40.658Z,99.40
2018-01-28T23:03:08.236Z,99.40
2018-01-28T23:05:35.879Z,99.40
2018-01-28T23:08:03.489Z,99.50
2018-01-28T23:10:31.093Z,99.50
2018-01-28T23:12:58.688Z,99.40
2018-01-28T23:15:27.054Z,99.20
2018-01-28T23:17:54.673Z,99.20
2018-01-28T23:20:22.258Z,99.40
2018-01-28T23:22:49.876Z,99.40
2018-01-28T23:25:17.456Z,99.10
2018-01-28T23:27:45.037Z,99.00
2018-01-28T23:30:13.392Z,98.90
2018-01-28T23:32:40.968Z,98.90
2018-01-28T23:35:08.553Z,98.80
2018-01-28T23:37:36.152Z,98.60
2018-01-28T23:40:03.752Z,98.70
2018-01-28T23:42:32.114Z,98.90
2018-01-28T23:44:59.700Z,98.90
2018-01-28T23:47:28.078Z,99.20
2018-01-28T23:49:55.654Z,99.10
2018-01-28T23:52:23.332Z,99.10
2018-01-28T23:54:51.701Z,98.50
2018-01-28T23:57:19.286Z,98.50
2018-01-28T23:59:47.723Z,98.20
